Industrial Challenge — CQBV — position and weather

sailwx.info

Track history (hours):
 
Tides and Currents Weather Stations Pressure Air Temp Water Temp Dewpoint Dewpoint Depression Visibility Wind Speed Wind Dir Waves Ship Positions

Industrial Challenge

Last reported at 2018-Apr-11 22:51 UTC. Time now 2018-May-22 18:00 UTC.
Position S 26°54' E 153°11'.
Warning: this ship's position is 40 days out of date.

Length 120 m; draft 6.1 m.

Type: Ship. MMSI: 255805850.

Date/timePositionNaut miles runAvg speedWind from/ knotsBaromVisibWave heightAir tempDewpointWater temp
2018-Apr-11 22:51S 26°54' E 153°11'515.2
2018-Apr-11 22:29S 26°59' E 153°14'814.0
2018-Apr-11 21:56S 27°05' E 153°19'712.1
2018-Apr-11 21:22S 27°12' E 153°17'514.0
2018-Apr-11 21:00S 27°17' E 153°14'7 0.2
2018-Apr-10 13:35S 27°23' E 153°10'0 0.0
2018-Apr-10 13:23S 27°23' E 153°10'0 0.0
2018-Apr-10 11:23S 27°23' E 153°10'0 0.0
2018-Apr-10 10:50S 27°23' E 153°10'0 0.0
2018-Apr-10 10:14S 27°23' E 153°10'0 0.0
2018-Apr-10 09:59S 27°23' E 153°10'0 0.0
2018-Apr-10 09:20S 27°23' E 153°10'0 0.0
2018-Apr-09 22:17S 27°23' E 153°10'1 4.4
2018-Apr-09 21:58S 27°22' E 153°11'511.3
2018-Apr-09 21:30S 27°17' E 153°14'612.5
2018-Apr-09 20:59S 27°12' E 153°17'711.1
2018-Apr-09 20:24S 27°05' E 153°19'613.8
2018-Apr-09 19:57S 27°00' E 153°14'714.9
2018-Apr-09 19:29S 26°54' E 153°11'712.7
2018-Apr-09 18:58S 26°48' E 153°11'612.8
2018-Apr-09 18:30S 26°42' E 153°13'611.1
2018-Apr-09 17:59S 26°42' E 153°19'  
Track history (hours):
 
Tides and Currents Weather Stations Pressure Air Temp Water Temp Dewpoint Dewpoint Depression Visibility Wind Speed Wind Dir Waves Ship Positions

Industrial Challenge

Last reported at 2018-Apr-11 22:51 UTC. Time now 2018-May-22 18:00 UTC.
Position S 26°54' E 153°11'.
Warning: this ship's position is 40 days out of date.

Length 120 m; draft 6.1 m.

Type: Ship. MMSI: 255805850.

Date/timePositionNaut miles runAvg speedWind from/ knotsBaromVisibWave heightAir tempDewpointWater temp
2018-Apr-11 22:51S 26°54' E 153°11'515.2
2018-Apr-11 22:29S 26°59' E 153°14'814.0
2018-Apr-11 21:56S 27°05' E 153°19'712.1
2018-Apr-11 21:22S 27°12' E 153°17'514.0
2018-Apr-11 21:00S 27°17' E 153°14'7 0.2
2018-Apr-10 13:35S 27°23' E 153°10'0 0.0
2018-Apr-10 13:23S 27°23' E 153°10'0 0.0
2018-Apr-10 11:23S 27°23' E 153°10'0 0.0
2018-Apr-10 10:50S 27°23' E 153°10'0 0.0
2018-Apr-10 10:14S 27°23' E 153°10'0 0.0
2018-Apr-10 09:59S 27°23' E 153°10'0 0.0
2018-Apr-10 09:20S 27°23' E 153°10'0 0.0
2018-Apr-09 22:17S 27°23' E 153°10'1 4.4
2018-Apr-09 21:58S 27°22' E 153°11'511.3
2018-Apr-09 21:30S 27°17' E 153°14'612.5
2018-Apr-09 20:59S 27°12' E 153°17'711.1
2018-Apr-09 20:24S 27°05' E 153°19'613.8
2018-Apr-09 19:57S 27°00' E 153°14'714.9
2018-Apr-09 19:29S 26°54' E 153°11'712.7
2018-Apr-09 18:58S 26°48' E 153°11'612.8
2018-Apr-09 18:30S 26°42' E 153°13'611.1
2018-Apr-09 17:59S 26°42' E 153°19'  

Dump ship's entire track history